createdAt,value
2019-04-05T00:01:39.062Z,88.48
2019-04-05T00:04:12.915Z,88.48
2019-04-05T00:06:46.631Z,88.52
2019-04-05T00:09:20.742Z,88.47
2019-04-05T00:11:54.556Z,88.55
2019-04-05T00:14:28.331Z,88.37
2019-04-05T00:17:02.092Z,88.37
2019-04-05T00:19:35.787Z,88.22
2019-04-05T00:22:10.252Z,87.96
2019-04-05T00:24:44.019Z,87.96
2019-04-05T00:27:17.766Z,88.20
2019-04-05T00:29:51.453Z,88.20
2019-04-05T00:32:25.381Z,88.02
2019-04-05T00:34:59.076Z,87.93
2019-04-05T00:37:33.097Z,87.88
2019-04-05T00:40:08.131Z,87.96
2019-04-05T00:42:42.218Z,88.00
2019-04-05T00:45:27.438Z,87.73
2019-04-05T00:47:51.545Z,87.73
2019-04-05T00:50:25.648Z,88.07
2019-04-05T00:52:59.526Z,88.07
2019-04-05T00:55:33.393Z,88.02
2019-04-05T00:58:07.187Z,88.02
2019-04-05T01:00:41.213Z,87.70
2019-04-05T01:03:14.932Z,87.70
2019-04-05T01:05:48.782Z,87.79
2019-04-05T01:08:22.764Z,87.76
2019-04-05T01:10:56.609Z,87.81
2019-04-05T01:13:30.969Z,87.86
2019-04-05T01:16:04.669Z,87.86
2019-04-05T01:18:38.655Z,87.70
2019-04-05T01:21:14.729Z,87.70
2019-04-05T01:23:50.135Z,87.65
2019-04-05T01:26:24.681Z,87.92
2019-04-05T01:28:58.504Z,88.02
2019-04-05T01:31:32.345Z,88.02
2019-04-05T01:34:06.350Z,87.88
2019-04-05T01:36:40.128Z,87.95
2019-04-05T01:39:14.137Z,88.00
2019-04-05T01:41:48.988Z,88.02
2019-04-05T01:44:23.067Z,88.13
2019-04-05T01:46:56.833Z,88.13
2019-04-05T01:49:30.543Z,88.09
2019-04-05T01:52:04.391Z,88.32
2019-04-05T01:54:38.130Z,87.81
2019-04-05T01:57:12.212Z,87.99
2019-04-05T01:59:46.215Z,87.99
2019-04-05T02:02:19.974Z,88.01
2019-04-05T02:04:53.958Z,88.06
2019-04-05T02:07:28.407Z,88.08
2019-04-05T02:10:02.325Z,88.05
2019-04-05T02:12:36.468Z,88.21
2019-04-05T04:50:54.266Z,89.56
2019-04-05T04:53:28.658Z,89.65
2019-04-05T04:56:02.483Z,89.80
2019-04-05T04:58:36.344Z,89.88
2019-04-05T05:01:10.498Z,90.04
2019-04-05T05:03:44.471Z,90.04
2019-04-05T05:06:18.369Z,89.91
2019-04-05T05:08:52.326Z,89.87
2019-04-05T05:11:26.629Z,89.95
2019-04-05T05:14:00.773Z,90.06
2019-04-05T05:16:34.703Z,90.28
2019-04-05T05:19:08.750Z,90.28
2019-04-05T05:21:43.122Z,90.09
2019-04-05T05:24:16.976Z,90.11
2019-04-05T05:26:51.159Z,90.21
2019-04-05T05:29:25.573Z,90.21
2019-04-05T05:31:59.740Z,90.35
2019-04-05T05:34:33.693Z,90.46
2019-04-05T05:37:07.568Z,90.52
2019-04-05T05:39:41.356Z,90.43
2019-04-05T05:42:15.093Z,90.37
2019-04-05T05:44:48.782Z,90.33
2019-04-05T05:47:23.009Z,90.38
2019-04-05T05:49:56.695Z,90.46
2019-04-05T05:52:31.319Z,90.23
2019-04-05T05:55:05.571Z,90.23
2019-04-05T05:57:39.311Z,89.63
2019-04-05T06:00:14.440Z,89.64
2019-04-05T06:02:48.662Z,89.64
2019-04-05T06:05:22.378Z,89.55
2019-04-05T06:07:56.137Z,89.49
2019-04-05T06:10:30.108Z,89.23
2019-04-05T06:13:06.633Z,89.23
2019-04-05T06:15:39.739Z,89.00
2019-04-05T06:18:13.543Z,89.00
2019-04-05T06:20:47.232Z,88.92
2019-04-05T06:23:32.971Z,88.89
2019-04-05T06:25:56.591Z,88.95
2019-04-05T06:28:30.414Z,88.92
2019-04-05T06:31:04.129Z,88.92
2019-04-05T06:33:37.923Z,89.00
2019-04-05T06:36:11.618Z,89.16
2019-04-05T06:38:45.368Z,89.16
2019-04-05T06:41:19.371Z,89.09
2019-04-05T06:43:53.107Z,89.16
2019-04-05T06:46:26.803Z,89.33
2019-04-05T06:49:00.536Z,89.33
2019-04-05T06:51:34.241Z,89.43
2019-04-05T06:54:08.066Z,89.54
2019-04-05T06:56:41.834Z,89.61
2019-04-05T06:59:15.563Z,89.63
2019-04-05T07:01:49.572Z,89.63
2019-04-05T07:04:23.324Z,89.49
2019-04-05T07:06:57.103Z,89.44
2019-04-05T07:09:33.948Z,89.44
2019-04-05T07:12:06.653Z,89.48
2019-04-05T07:14:40.393Z,89.11
2019-04-05T07:17:14.106Z,88.88
2019-04-05T07:19:47.829Z,88.88
2019-04-05T07:22:33.508Z,88.78
2019-04-05T07:24:57.254Z,88.52
2019-04-05T07:27:30.947Z,88.52
2019-04-05T07:30:04.988Z,88.41
2019-04-05T07:32:39.862Z,87.80
2019-04-05T07:35:13.865Z,87.39
2019-04-05T07:37:47.568Z,86.60
2019-04-05T07:40:23.007Z,85.75
2019-04-05T07:42:56.700Z,85.35
2019-04-05T07:45:30.451Z,84.92
2019-04-05T07:48:04.150Z,84.63
2019-04-05T07:50:37.886Z,84.47
2019-04-05T07:53:11.588Z,83.75
2019-04-05T07:55:45.330Z,83.41
2019-04-05T07:58:19.029Z,82.82
2019-04-05T08:00:55.140Z,82.44
2019-04-05T08:03:28.800Z,81.03
2019-04-05T08:06:03.058Z,80.22
2019-04-05T08:09:09.330Z,79.91
2019-04-05T08:11:45.422Z,78.29
2019-04-05T08:14:20.520Z,77.32
2019-04-05T08:16:54.430Z,76.65
2019-04-05T08:19:28.125Z,76.50
2019-04-05T08:22:01.859Z,76.20
2019-04-05T08:24:35.556Z,76.52
2019-04-05T08:27:09.287Z,75.07
2019-04-05T08:29:42.992Z,73.27
2019-04-05T08:32:16.728Z,72.51
2019-04-05T08:34:50.758Z,70.23
2019-04-05T08:37:24.501Z,69.52
2019-04-05T08:39:58.212Z,68.18
2019-04-05T08:42:31.979Z,65.76
2019-04-05T08:45:06.345Z,65.54
2019-04-05T08:47:40.091Z,64.70
2019-04-05T08:50:15.804Z,65.19
2019-04-05T08:52:49.879Z,65.88
2019-04-05T08:55:23.586Z,66.35
2019-04-05T08:57:57.332Z,66.79
2019-04-05T09:00:31.361Z,66.64
2019-04-05T09:03:05.195Z,67.66
2019-04-05T09:05:38.893Z,67.94
2019-04-05T09:08:12.723Z,66.98
2019-04-05T09:10:46.500Z,64.62
2019-04-05T09:13:20.245Z,63.83
2019-04-05T09:15:53.947Z,63.62
2019-04-05T09:18:27.764Z,62.97
2019-04-05T09:21:01.540Z,62.16
2019-04-05T09:23:35.727Z,63.60
2019-04-05T09:26:09.503Z,63.04
2019-04-05T09:28:43.240Z,61.62
2019-04-05T09:31:16.948Z,60.09
2019-04-05T09:33:50.986Z,58.00
2019-04-05T09:36:25.371Z,56.42
2019-04-05T09:38:59.106Z,56.33
2019-04-05T09:41:32.818Z,56.15
2019-04-05T09:44:06.897Z,56.17
2019-04-05T09:46:47.031Z,57.48
2019-04-05T09:49:16.073Z,57.63
2019-04-05T09:51:49.779Z,57.75
2019-04-05T09:54:23.779Z,58.10
2019-04-05T09:56:57.488Z,58.60
2019-04-05T09:59:31.223Z,59.27
2019-04-05T10:02:05.025Z,59.94
2019-04-05T10:04:38.758Z,59.80
2019-04-05T10:07:12.533Z,59.85
2019-04-05T10:09:46.260Z,59.06
2019-04-05T10:12:19.968Z,60.88
2019-04-05T10:14:53.716Z,58.77
2019-04-05T10:17:27.420Z,57.85
2019-04-05T10:20:01.177Z,57.53
2019-04-05T10:22:34.883Z,56.62
2019-04-05T10:25:08.865Z,56.59
2019-04-05T10:27:42.573Z,55.58
2019-04-05T10:30:17.255Z,54.67
2019-04-05T10:32:50.972Z,55.48
2019-04-05T10:35:24.876Z,56.26
2019-04-05T10:37:58.649Z,57.46
2019-04-05T10:40:32.683Z,58.72
2019-04-05T10:43:06.531Z,58.54
2019-04-05T10:45:40.523Z,59.96
2019-04-05T10:48:14.239Z,59.72
2019-04-05T10:50:48.405Z,59.33
2019-04-05T10:53:22.109Z,58.63
2019-04-05T10:55:55.851Z,58.66
2019-04-05T10:58:29.557Z,59.19
2019-04-05T11:01:03.352Z,58.89
2019-04-05T11:03:37.044Z,59.77
2019-04-05T11:06:10.823Z,60.61
2019-04-05T11:08:44.765Z,59.46
2019-04-05T11:11:18.566Z,58.13
2019-04-05T11:13:52.563Z,58.77
2019-04-05T11:16:26.282Z,59.04
2019-04-05T11:19:01.904Z,60.20
2019-04-05T11:21:35.497Z,58.52
2019-04-05T11:24:09.593Z,57.98
2019-04-05T11:26:43.314Z,58.43
2019-04-05T11:29:17.080Z,59.32
2019-04-05T11:31:57.345Z,58.83
2019-04-05T11:34:26.606Z,59.78
2019-04-05T11:37:02.836Z,59.84
2019-04-05T11:39:37.320Z,60.08
2019-04-05T11:42:11.317Z,60.65
2019-04-05T11:44:48.358Z,60.03
2019-04-05T11:47:22.266Z,60.95
2019-04-05T11:49:57.710Z,60.89
2019-04-05T11:52:31.576Z,60.35
2019-04-05T11:55:05.977Z,59.52
2019-04-05T11:57:41.422Z,58.46
2019-04-05T12:00:20.357Z,56.18
2019-04-05T12:02:58.068Z,53.00
2019-04-05T12:05:31.769Z,51.21
2019-04-05T12:08:06.537Z,54.30
2019-04-05T12:10:40.319Z,52.40
2019-04-05T12:13:14.041Z,53.20
2019-04-05T12:15:47.810Z,53.68
2019-04-05T12:18:21.718Z,54.03
2019-04-05T12:21:00.010Z,54.77
2019-04-05T12:23:33.388Z,54.16
2019-04-05T12:26:06.967Z,53.30
2019-04-05T12:28:40.952Z,51.31
2019-04-05T12:31:15.393Z,50.36
2019-04-05T12:33:51.352Z,47.93
2019-04-05T12:36:24.543Z,46.91
2019-04-05T12:38:58.288Z,47.14
2019-04-05T12:41:31.993Z,48.33
2019-04-05T12:44:05.873Z,48.59
2019-04-05T12:46:39.646Z,48.03
2019-04-05T12:49:15.313Z,46.60
2019-04-05T12:51:49.189Z,45.99
2019-04-05T12:54:22.928Z,45.84
2019-04-05T12:56:58.131Z,47.23
2019-04-05T12:59:32.075Z,47.35
2019-04-05T13:02:05.837Z,48.48
2019-04-05T13:04:39.585Z,48.06
2019-04-05T13:07:13.269Z,48.05
2019-04-05T13:09:47.126Z,48.75
2019-04-05T13:12:20.822Z,49.51
2019-04-05T13:14:56.741Z,48.74
2019-04-05T13:17:31.326Z,50.35
2019-04-05T13:20:06.472Z,51.30
2019-04-05T13:22:40.177Z,52.31
2019-04-05T13:25:13.968Z,54.66
2019-04-05T13:27:47.661Z,55.93
2019-04-05T13:30:21.560Z,57.14
2019-04-05T13:32:55.339Z,58.80
2019-04-05T13:35:29.055Z,59.98
2019-04-05T13:38:02.750Z,59.79
2019-04-05T13:40:36.658Z,60.03
2019-04-05T13:43:10.748Z,60.01
2019-04-05T13:45:44.477Z,60.66
2019-04-05T13:48:18.175Z,60.23
2019-04-05T13:50:51.893Z,60.73
2019-04-05T13:53:25.870Z,61.46
2019-04-05T13:55:59.708Z,61.68
2019-04-05T13:58:33.397Z,61.92
2019-04-05T14:01:07.329Z,61.47
2019-04-05T14:03:41.016Z,61.42
2019-04-05T14:06:14.856Z,61.79
2019-04-05T14:08:48.550Z,63.16
2019-04-05T14:11:22.270Z,65.29
2019-04-05T14:13:55.962Z,65.03
2019-04-05T14:16:29.946Z,64.95
2019-04-05T14:19:03.714Z,64.57
2019-04-05T14:21:40.824Z,63.94
2019-04-05T14:24:13.141Z,63.58
2019-04-05T14:26:46.889Z,62.91
2019-04-05T14:29:20.699Z,62.33
2019-04-05T14:31:54.602Z,62.05
2019-04-05T14:34:28.601Z,62.17
2019-04-05T14:37:02.338Z,61.25
2019-04-05T14:39:36.034Z,61.58
2019-04-05T14:42:12.356Z,61.01
2019-04-05T14:44:45.333Z,61.34
2019-04-05T14:47:20.051Z,61.09
2019-04-05T14:49:53.749Z,61.20
2019-04-05T14:52:28.854Z,60.71
2019-04-05T14:55:03.073Z,60.73
2019-04-05T14:57:37.885Z,61.12
2019-04-05T15:00:15.021Z,59.83
2019-04-05T15:02:48.009Z,61.39
2019-04-05T15:05:21.700Z,61.77
2019-04-05T15:07:55.765Z,62.33
2019-04-05T15:10:29.726Z,62.91
2019-04-05T15:13:03.436Z,62.25
2019-04-05T15:15:37.122Z,61.78
2019-04-05T15:18:12.497Z,61.45
2019-04-05T15:20:46.263Z,60.68
2019-04-05T15:23:20.045Z,60.44
2019-04-05T15:25:53.733Z,59.51
2019-04-05T15:28:27.540Z,59.55
2019-04-05T15:31:01.228Z,58.99
2019-04-05T15:33:34.969Z,59.69
2019-04-05T15:36:08.658Z,59.69
2019-04-05T15:38:42.479Z,59.69
2019-04-05T15:41:16.326Z,60.25
2019-04-05T15:43:50.429Z,61.72
2019-04-05T15:46:25.237Z,62.51
2019-04-05T15:48:58.944Z,62.60
2019-04-05T15:51:32.908Z,63.28
2019-04-05T15:54:06.760Z,64.52
2019-04-05T15:56:41.149Z,64.37
2019-04-05T15:59:14.980Z,65.16
2019-04-05T16:01:48.746Z,65.82
2019-04-05T16:04:22.964Z,65.82
2019-04-05T16:06:57.056Z,66.44
2019-04-05T16:09:31.225Z,66.72
2019-04-05T16:12:05.252Z,66.17
2019-04-05T16:14:39.013Z,66.32
2019-04-05T16:17:13.038Z,66.89
2019-04-05T16:19:47.150Z,67.47
2019-04-05T16:22:30.788Z,67.89
2019-04-05T16:24:56.299Z,68.34
2019-04-05T16:27:30.410Z,68.78
2019-04-05T16:30:04.983Z,69.95
2019-04-05T16:32:39.069Z,70.26
2019-04-05T16:35:14.834Z,70.58
2019-04-05T16:37:48.619Z,71.27
2019-04-05T16:40:22.728Z,70.97
2019-04-05T16:43:02.845Z,71.51
2019-04-05T16:45:32.046Z,72.17
2019-04-05T16:48:05.885Z,72.40
2019-04-05T16:50:42.177Z,72.67
2019-04-05T16:53:15.060Z,72.98
2019-04-05T16:55:49.080Z,73.41
2019-04-05T17:00:56.189Z,73.53
2019-04-05T17:03:29.898Z,74.37
2019-04-05T17:06:03.951Z,74.42
2019-04-05T17:08:37.643Z,74.71
2019-04-05T17:11:11.388Z,74.48
2019-04-05T17:13:45.520Z,74.22
2019-04-05T17:16:19.258Z,74.05
2019-04-05T17:18:52.955Z,74.92
2019-04-05T17:21:26.749Z,74.70
2019-04-05T17:24:00.462Z,74.50
2019-04-05T17:26:34.802Z,75.19
2019-04-05T17:29:08.501Z,74.89
2019-04-05T17:31:42.237Z,74.96
2019-04-05T17:34:16.000Z,74.95
2019-04-05T17:36:49.783Z,74.99
2019-04-05T17:39:23.478Z,74.92
2019-04-05T17:41:57.225Z,74.56
2019-04-05T17:44:30.924Z,74.23
2019-04-05T17:47:04.808Z,74.29
2019-04-05T17:49:38.535Z,74.28
2019-04-05T17:52:12.631Z,74.29
2019-04-05T17:54:46.332Z,74.41
2019-04-05T17:57:20.707Z,74.41
2019-04-05T17:59:54.550Z,74.11
2019-04-05T18:02:28.755Z,73.98
2019-04-05T18:05:02.467Z,74.42
2019-04-05T18:07:36.261Z,74.81
2019-04-05T18:10:10.100Z,75.02
2019-04-05T18:12:43.835Z,75.28
2019-04-05T18:15:17.825Z,75.42
2019-04-05T18:17:51.547Z,75.75
2019-04-05T18:20:25.309Z,75.74
2019-04-05T18:22:59.042Z,75.92
2019-04-05T18:25:32.797Z,76.61
2019-04-05T18:28:06.543Z,76.96
2019-04-05T18:30:40.230Z,76.97
2019-04-05T18:33:13.953Z,77.46
2019-04-05T18:35:47.655Z,77.91
2019-04-05T18:38:21.382Z,78.15
2019-04-05T18:40:55.077Z,78.10
2019-04-05T18:43:29.065Z,78.46
2019-04-05T18:46:02.761Z,78.93
2019-04-05T18:48:36.743Z,78.64
2019-04-05T18:51:10.451Z,78.91
2019-04-05T18:53:44.212Z,78.96
2019-04-05T18:56:17.916Z,79.18
2019-04-05T18:58:51.655Z,79.15
2019-04-05T19:01:25.632Z,79.26
2019-04-05T19:03:59.679Z,79.20
2019-04-05T19:06:33.460Z,79.16
2019-04-05T19:09:08.287Z,79.28
2019-04-05T19:11:41.970Z,79.33
2019-04-05T19:14:15.699Z,79.39
2019-04-05T19:16:49.696Z,79.66
2019-04-05T19:19:23.494Z,80.08
2019-04-05T19:21:57.210Z,80.14
2019-04-05T19:24:31.214Z,80.15
2019-04-05T19:27:05.085Z,80.39
2019-04-05T19:29:38.827Z,80.12
2019-04-05T19:50:22.408Z,80.91
2019-04-05T19:52:56.527Z,80.92
2019-04-05T19:55:30.352Z,80.38
2019-04-05T19:58:04.152Z,80.23
2019-04-05T20:00:37.911Z,80.16
2019-04-05T20:03:11.628Z,80.31
2019-04-05T20:05:45.448Z,80.38
2019-04-05T20:08:19.431Z,80.51
2019-04-05T20:10:53.544Z,80.64
2019-04-05T20:13:27.222Z,80.79
2019-04-05T20:16:01.395Z,81.20
2019-04-05T20:18:35.156Z,81.15
2019-04-05T20:21:09.088Z,81.55
2019-04-05T20:23:47.488Z,81.29
2019-04-05T20:26:18.289Z,81.31
2019-04-05T20:28:52.007Z,81.52
2019-04-05T20:31:26.110Z,81.66
2019-04-05T20:33:59.768Z,81.65
2019-04-05T20:36:33.857Z,81.48
2019-04-05T20:39:08.195Z,81.63
2019-04-05T20:41:41.967Z,81.74
2019-04-05T20:44:15.678Z,82.22
2019-04-05T20:46:49.420Z,82.26
2019-04-05T20:49:23.126Z,82.26
2019-04-05T20:51:57.498Z,82.26
2019-04-05T20:54:31.553Z,81.82
2019-04-05T20:57:05.454Z,81.87
2019-04-05T20:59:39.155Z,81.99
2019-04-05T21:02:12.899Z,81.91
2019-04-05T21:04:46.616Z,81.85
2019-04-05T21:07:20.352Z,81.78
2019-04-05T21:09:54.154Z,81.85
2019-04-05T21:12:27.889Z,81.86
2019-04-05T21:15:01.606Z,81.77
2019-04-05T21:17:35.388Z,81.65
2019-04-05T21:20:09.444Z,81.64
2019-04-05T21:22:43.204Z,81.28
2019-04-05T21:25:16.917Z,81.65
2019-04-05T21:27:50.754Z,81.53
2019-04-05T21:30:24.473Z,82.14
2019-04-05T21:32:58.525Z,82.25
2019-04-05T21:35:32.535Z,82.51
2019-04-05T21:38:06.426Z,82.48
2019-04-05T21:40:40.189Z,82.48
2019-04-05T21:43:14.314Z,82.79
2019-04-05T21:45:48.077Z,82.73
2019-04-05T21:48:21.877Z,82.99
2019-04-05T21:50:55.736Z,83.08
2019-04-05T21:53:30.139Z,83.07
2019-04-05T21:56:03.911Z,82.99
2019-04-05T21:58:37.720Z,82.74
2019-04-05T22:01:11.969Z,83.04
2019-04-05T22:03:45.874Z,82.98
2019-04-05T22:06:19.635Z,82.97
2019-04-05T22:08:53.772Z,82.83
2019-04-05T22:11:28.000Z,83.06
2019-04-05T22:14:01.868Z,83.15
2019-04-05T22:16:35.927Z,83.11
2019-04-05T22:19:09.670Z,83.41
2019-04-05T22:21:43.476Z,83.75
2019-04-05T22:24:17.272Z,83.85
2019-04-05T22:26:51.069Z,84.16
2019-04-05T22:29:24.914Z,83.85
2019-04-05T22:31:58.693Z,83.75
2019-04-05T22:34:32.815Z,83.79
2019-04-05T22:37:06.597Z,83.86
2019-04-05T22:39:40.457Z,84.22
2019-04-05T22:42:14.307Z,84.36
2019-04-05T22:44:48.155Z,84.30
2019-04-05T22:47:21.952Z,84.70
2019-04-05T22:49:55.833Z,85.00
2019-04-05T22:52:29.623Z,85.15
2019-04-05T22:55:11.008Z,85.55
2019-04-05T22:57:39.360Z,85.26
2019-04-05T23:00:14.710Z,85.26
2019-04-05T23:02:48.501Z,85.07
2019-04-05T23:05:22.327Z,84.94
2019-04-05T23:07:56.121Z,84.80
2019-04-05T23:10:29.955Z,85.13
2019-04-05T23:13:03.743Z,85.53
2019-04-05T23:15:37.817Z,85.68
2019-04-05T23:18:11.621Z,85.34
2019-04-05T23:20:45.492Z,85.05
2019-04-05T23:23:19.290Z,85.00
2019-04-05T23:25:53.455Z,85.41
2019-04-05T23:28:27.237Z,85.25
2019-04-05T23:31:01.077Z,85.40
2019-04-05T23:33:34.872Z,85.09
2019-04-05T23:36:08.683Z,84.98
2019-04-05T23:38:42.707Z,85.03
2019-04-05T23:41:16.553Z,84.93
2019-04-05T23:43:50.673Z,85.07
2019-04-05T23:46:24.909Z,85.21
2019-04-05T23:48:58.698Z,85.11
2019-04-05T23:51:32.527Z,85.22
2019-04-05T23:54:06.313Z,85.40
2019-04-05T23:56:40.427Z,85.63
2019-04-05T23:59:14.344Z,85.62
